sensor_id;sensor_type;location;lat;lon;timestamp;P1;durP1;ratioP1;P2;durP2;ratioP2
55728;SDS011;41633;39.720;2.910;2022-10-31T00:02:47;22.88;;;8.27;;
55728;SDS011;41633;39.720;2.910;2022-10-31T00:07:39;31.33;;;8.93;;
55728;SDS011;41633;39.720;2.910;2022-10-31T00:12:31;26.15;;;8.65;;
55728;SDS011;41633;39.720;2.910;2022-10-31T00:17:23;22.27;;;8.65;;
55728;SDS011;41633;39.720;2.910;2022-10-31T00:22:15;23.90;;;8.38;;
55728;SDS011;41633;39.720;2.910;2022-10-31T00:24:41;22.67;;;8.25;;
55728;SDS011;41633;39.720;2.910;2022-10-31T00:29:33;25.73;;;8.82;;
55728;SDS011;41633;39.720;2.910;2022-10-31T00:32:01;19.85;;;8.52;;
55728;SDS011;41633;39.720;2.910;2022-10-31T00:34:27;25.88;;;8.20;;
55728;SDS011;41633;39.720;2.910;2022-10-31T00:39:19;22.42;;;8.32;;
55728;SDS011;41633;39.720;2.910;2022-10-31T00:44:11;21.88;;;8.57;;
55728;SDS011;41633;39.720;2.910;2022-10-31T00:49:03;23.70;;;8.60;;
55728;SDS011;41633;39.720;2.910;2022-10-31T00:53:55;26.15;;;8.82;;
55728;SDS011;41633;39.720;2.910;2022-10-31T00:58:47;24.25;;;7.75;;
55728;SDS011;41633;39.720;2.910;2022-10-31T01:03:39;27.23;;;8.60;;
55728;SDS011;41633;39.720;2.910;2022-10-31T01:08:31;22.45;;;8.48;;
55728;SDS011;41633;39.720;2.910;2022-10-31T01:10:58;19.23;;;8.02;;
55728;SDS011;41633;39.720;2.910;2022-10-31T01:13:26;24.00;;;8.55;;
55728;SDS011;41633;39.720;2.910;2022-10-31T01:18:18;21.63;;;8.27;;
55728;SDS011;41633;39.720;2.910;2022-10-31T01:23:10;21.52;;;7.95;;
55728;SDS011;41633;39.720;2.910;2022-10-31T01:28:02;22.10;;;8.35;;
55728;SDS011;41633;39.720;2.910;2022-10-31T01:32:54;20.52;;;8.00;;
55728;SDS011;41633;39.720;2.910;2022-10-31T01:37:46;18.52;;;7.47;;
55728;SDS011;41633;39.720;2.910;2022-10-31T01:42:38;19.35;;;7.57;;
55728;SDS011;41633;39.720;2.910;2022-10-31T01:47:32;20.98;;;7.65;;
55728;SDS011;41633;39.720;2.910;2022-10-31T01:50:03;19.85;;;7.50;;
55728;SDS011;41633;39.720;2.910;2022-10-31T01:52:31;19.13;;;7.30;;
55728;SDS011;41633;39.720;2.910;2022-10-31T01:59:51;20.35;;;7.93;;
55728;SDS011;41633;39.720;2.910;2022-10-31T02:02:19;20.73;;;7.68;;
55728;SDS011;41633;39.720;2.910;2022-10-31T02:04:45;20.13;;;7.72;;
55728;SDS011;41633;39.720;2.910;2022-10-31T02:07:24;24.15;;;8.10;;
55728;SDS011;41633;39.720;2.910;2022-10-31T02:09:51;18.83;;;7.68;;
55728;SDS011;41633;39.720;2.910;2022-10-31T02:12:19;22.08;;;7.65;;
55728;SDS011;41633;39.720;2.910;2022-10-31T02:14:45;20.20;;;8.20;;
55728;SDS011;41633;39.720;2.910;2022-10-31T02:22:16;20.08;;;7.40;;
55728;SDS011;41633;39.720;2.910;2022-10-31T02:35:25;16.65;;;7.20;;
55728;SDS011;41633;39.720;2.910;2022-10-31T02:42:51;18.67;;;7.10;;
55728;SDS011;41633;39.720;2.910;2022-10-31T02:47:56;16.98;;;7.22;;
55728;SDS011;41633;39.720;2.910;2022-10-31T02:50:26;22.15;;;7.15;;
55728;SDS011;41633;39.720;2.910;2022-10-31T02:52:53;19.27;;;7.15;;
55728;SDS011;41633;39.720;2.910;2022-10-31T02:57:45;25.25;;;7.63;;
55728;SDS011;41633;39.720;2.910;2022-10-31T03:05:14;18.63;;;7.38;;
55728;SDS011;41633;39.720;2.910;2022-10-31T03:07:48;20.42;;;7.47;;
55728;SDS011;41633;39.720;2.910;2022-10-31T03:10:20;20.23;;;7.03;;
55728;SDS011;41633;39.720;2.910;2022-10-31T03:15:49;21.33;;;7.28;;
55728;SDS011;41633;39.720;2.910;2022-10-31T03:18:08;21.30;;;7.13;;
55728;SDS011;41633;39.720;2.910;2022-10-31T03:20:42;21.55;;;7.50;;
55728;SDS011;41633;39.720;2.910;2022-10-31T03:23:11;23.10;;;7.63;;
55728;SDS011;41633;39.720;2.910;2022-10-31T03:25:39;19.45;;;7.28;;
55728;SDS011;41633;39.720;2.910;2022-10-31T03:28:06;18.65;;;7.43;;
55728;SDS011;41633;39.720;2.910;2022-10-31T03:30:35;20.80;;;7.40;;
55728;SDS011;41633;39.720;2.910;2022-10-31T03:33:03;16.75;;;6.80;;
55728;SDS011;41633;39.720;2.910;2022-10-31T03:35:30;22.27;;;7.20;;
55728;SDS011;41633;39.720;2.910;2022-10-31T03:37:58;20.00;;;6.88;;
55728;SDS011;41633;39.720;2.910;2022-10-31T03:40:27;19.00;;;6.85;;
55728;SDS011;41633;39.720;2.910;2022-10-31T03:42:55;19.05;;;7.57;;
55728;SDS011;41633;39.720;2.910;2022-10-31T03:45:23;20.70;;;7.25;;
55728;SDS011;41633;39.720;2.910;2022-10-31T03:47:50;20.15;;;7.70;;
55728;SDS011;41633;39.720;2.910;2022-10-31T03:50:17;18.58;;;7.50;;
55728;SDS011;41633;39.720;2.910;2022-10-31T03:52:53;18.02;;;7.15;;
55728;SDS011;41633;39.720;2.910;2022-10-31T03:55:31;19.48;;;6.97;;
55728;SDS011;41633;39.720;2.910;2022-10-31T03:58:09;22.42;;;7.75;;
55728;SDS011;41633;39.720;2.910;2022-10-31T04:00:38;19.05;;;7.18;;
55728;SDS011;41633;39.720;2.910;2022-10-31T04:03:15;18.60;;;7.05;;
55728;SDS011;41633;39.720;2.910;2022-10-31T04:05:43;17.35;;;6.88;;
55728;SDS011;41633;39.720;2.910;2022-10-31T04:08:12;18.67;;;7.18;;
55728;SDS011;41633;39.720;2.910;2022-10-31T04:10:40;23.30;;;8.05;;
55728;SDS011;41633;39.720;2.910;2022-10-31T04:13:08;20.58;;;7.40;;
55728;SDS011;41633;39.720;2.910;2022-10-31T04:15:35;18.73;;;7.25;;
55728;SDS011;41633;39.720;2.910;2022-10-31T04:18:02;16.75;;;7.20;;
55728;SDS011;41633;39.720;2.910;2022-10-31T04:20:34;20.77;;;7.85;;
55728;SDS011;41633;39.720;2.910;2022-10-31T04:23:02;18.83;;;7.03;;
55728;SDS011;41633;39.720;2.910;2022-10-31T04:25:28;18.63;;;7.05;;
55728;SDS011;41633;39.720;2.910;2022-10-31T04:27:55;18.45;;;7.60;;
55728;SDS011;41633;39.720;2.910;2022-10-31T04:32:47;22.50;;;7.38;;
55728;SDS011;41633;39.720;2.910;2022-10-31T04:37:39;21.58;;;7.10;;
55728;SDS011;41633;39.720;2.910;2022-10-31T04:42:31;25.48;;;8.07;;
55728;SDS011;41633;39.720;2.910;2022-10-31T04:44:57;20.73;;;7.32;;
55728;SDS011;41633;39.720;2.910;2022-10-31T04:47:23;18.90;;;6.88;;
55728;SDS011;41633;39.720;2.910;2022-10-31T04:52:15;19.70;;;7.10;;
55728;SDS011;41633;39.720;2.910;2022-10-31T04:57:08;18.15;;;6.85;;
55728;SDS011;41633;39.720;2.910;2022-10-31T04:59:34;19.50;;;7.32;;
55728;SDS011;41633;39.720;2.910;2022-10-31T05:04:27;16.92;;;7.05;;
55728;SDS011;41633;39.720;2.910;2022-10-31T05:09:19;17.70;;;7.03;;
55728;SDS011;41633;39.720;2.910;2022-10-31T05:14:11;17.52;;;6.97;;
55728;SDS011;41633;39.720;2.910;2022-10-31T05:16:37;22.20;;;6.93;;
55728;SDS011;41633;39.720;2.910;2022-10-31T05:21:29;17.83;;;6.28;;
55728;SDS011;41633;39.720;2.910;2022-10-31T05:23:55;16.02;;;6.18;;
55728;SDS011;41633;39.720;2.910;2022-10-31T05:28:47;17.95;;;6.90;;
55728;SDS011;41633;39.720;2.910;2022-10-31T05:33:39;18.73;;;6.68;;
55728;SDS011;41633;39.720;2.910;2022-10-31T05:36:05;16.35;;;7.28;;
55728;SDS011;41633;39.720;2.910;2022-10-31T05:40:57;20.15;;;7.35;;
55728;SDS011;41633;39.720;2.910;2022-10-31T05:43:25;22.75;;;7.88;;
55728;SDS011;41633;39.720;2.910;2022-10-31T05:48:17;19.45;;;7.05;;
55728;SDS011;41633;39.720;2.910;2022-10-31T05:53:09;18.88;;;7.35;;
55728;SDS011;41633;39.720;2.910;2022-10-31T05:58:02;20.33;;;7.30;;
55728;SDS011;41633;39.720;2.910;2022-10-31T06:00:28;23.55;;;7.57;;
55728;SDS011;41633;39.720;2.910;2022-10-31T06:03:02;17.33;;;6.68;;
55728;SDS011;41633;39.720;2.910;2022-10-31T06:05:29;16.27;;;6.40;;
55728;SDS011;41633;39.720;2.910;2022-10-31T06:07:55;19.70;;;6.90;;
55728;SDS011;41633;39.720;2.910;2022-10-31T06:10:22;20.65;;;6.53;;
55728;SDS011;41633;39.720;2.910;2022-10-31T06:12:48;18.80;;;6.60;;
55728;SDS011;41633;39.720;2.910;2022-10-31T06:17:40;21.70;;;7.68;;
55728;SDS011;41633;39.720;2.910;2022-10-31T06:22:32;19.33;;;6.78;;
55728;SDS011;41633;39.720;2.910;2022-10-31T06:27:24;18.13;;;7.35;;
55728;SDS011;41633;39.720;2.910;2022-10-31T06:29:51;23.38;;;6.82;;
55728;SDS011;41633;39.720;2.910;2022-10-31T06:32:17;17.75;;;7.10;;
55728;SDS011;41633;39.720;2.910;2022-10-31T06:34:44;16.27;;;7.45;;
55728;SDS011;41633;39.720;2.910;2022-10-31T06:37:13;18.58;;;7.22;;
55728;SDS011;41633;39.720;2.910;2022-10-31T06:39:39;17.95;;;7.13;;
55728;SDS011;41633;39.720;2.910;2022-10-31T06:44:31;17.73;;;6.72;;
55728;SDS011;41633;39.720;2.910;2022-10-31T06:46:58;17.73;;;6.53;;
55728;SDS011;41633;39.720;2.910;2022-10-31T06:49:24;17.42;;;7.18;;
55728;SDS011;41633;39.720;2.910;2022-10-31T06:51:50;23.90;;;7.28;;
55728;SDS011;41633;39.720;2.910;2022-10-31T06:54:16;17.95;;;7.13;;
55728;SDS011;41633;39.720;2.910;2022-10-31T06:56:45;19.27;;;8.00;;
55728;SDS011;41633;39.720;2.910;2022-10-31T06:59:12;21.63;;;7.93;;
55728;SDS011;41633;39.720;2.910;2022-10-31T07:01:38;21.58;;;7.43;;
55728;SDS011;41633;39.720;2.910;2022-10-31T07:06:30;17.80;;;6.85;;
55728;SDS011;41633;39.720;2.910;2022-10-31T07:08:56;14.10;;;7.05;;
55728;SDS011;41633;39.720;2.910;2022-10-31T07:11:23;18.08;;;7.00;;
55728;SDS011;41633;39.720;2.910;2022-10-31T07:16:15;19.90;;;8.10;;
55728;SDS011;41633;39.720;2.910;2022-10-31T07:21:07;22.25;;;8.32;;
55728;SDS011;41633;39.720;2.910;2022-10-31T07:25:59;19.08;;;8.00;;
55728;SDS011;41633;39.720;2.910;2022-10-31T07:28:27;21.08;;;8.02;;
55728;SDS011;41633;39.720;2.910;2022-10-31T07:30:53;21.48;;;8.73;;
55728;SDS011;41633;39.720;2.910;2022-10-31T07:33:20;22.90;;;9.20;;
55728;SDS011;41633;39.720;2.910;2022-10-31T07:35:46;18.55;;;8.15;;
55728;SDS011;41633;39.720;2.910;2022-10-31T07:38:13;21.63;;;7.65;;
55728;SDS011;41633;39.720;2.910;2022-10-31T07:40:40;29.65;;;9.32;;
55728;SDS011;41633;39.720;2.910;2022-10-31T07:43:07;21.45;;;7.88;;
55728;SDS011;41633;39.720;2.910;2022-10-31T07:45:33;19.52;;;7.72;;
55728;SDS011;41633;39.720;2.910;2022-10-31T07:47:59;23.95;;;8.05;;
55728;SDS011;41633;39.720;2.910;2022-10-31T07:50:28;20.92;;;8.13;;
55728;SDS011;41633;39.720;2.910;2022-10-31T07:53:02;21.42;;;8.18;;
55728;SDS011;41633;39.720;2.910;2022-10-31T07:55:29;20.10;;;7.05;;
55728;SDS011;41633;39.720;2.910;2022-10-31T07:57:59;20.02;;;7.82;;
55728;SDS011;41633;39.720;2.910;2022-10-31T08:00:27;21.17;;;7.88;;
55728;SDS011;41633;39.720;2.910;2022-10-31T08:03:26;17.63;;;6.97;;
55728;SDS011;41633;39.720;2.910;2022-10-31T08:05:45;20.52;;;7.95;;
55728;SDS011;41633;39.720;2.910;2022-10-31T08:08:11;21.20;;;7.45;;
55728;SDS011;41633;39.720;2.910;2022-10-31T08:10:38;30.17;;;9.32;;
55728;SDS011;41633;39.720;2.910;2022-10-31T08:13:06;26.48;;;9.82;;
55728;SDS011;41633;39.720;2.910;2022-10-31T08:15:33;25.20;;;10.57;;
55728;SDS011;41633;39.720;2.910;2022-10-31T08:18:02;22.15;;;10.38;;
55728;SDS011;41633;39.720;2.910;2022-10-31T08:20:28;27.25;;;11.98;;
55728;SDS011;41633;39.720;2.910;2022-10-31T08:23:06;32.35;;;11.20;;
55728;SDS011;41633;39.720;2.910;2022-10-31T08:25:33;25.33;;;9.52;;
55728;SDS011;41633;39.720;2.910;2022-10-31T08:27:59;27.95;;;10.55;;
55728;SDS011;41633;39.720;2.910;2022-10-31T08:30:29;21.63;;;9.10;;
55728;SDS011;41633;39.720;2.910;2022-10-31T08:32:59;21.55;;;8.30;;
55728;SDS011;41633;39.720;2.910;2022-10-31T08:35:26;18.40;;;7.72;;
55728;SDS011;41633;39.720;2.910;2022-10-31T08:37:53;18.48;;;7.75;;
55728;SDS011;41633;39.720;2.910;2022-10-31T08:40:20;20.85;;;7.55;;
55728;SDS011;41633;39.720;2.910;2022-10-31T08:42:46;16.80;;;6.45;;
55728;SDS011;41633;39.720;2.910;2022-10-31T08:45:12;21.10;;;6.80;;
55728;SDS011;41633;39.720;2.910;2022-10-31T08:47:39;17.20;;;6.90;;
55728;SDS011;41633;39.720;2.910;2022-10-31T08:50:05;17.15;;;6.88;;
55728;SDS011;41633;39.720;2.910;2022-10-31T08:52:31;22.55;;;7.60;;
55728;SDS011;41633;39.720;2.910;2022-10-31T08:54:57;19.48;;;6.97;;
55728;SDS011;41633;39.720;2.910;2022-10-31T08:57:23;21.10;;;6.88;;
55728;SDS011;41633;39.720;2.910;2022-10-31T08:59:49;16.55;;;6.57;;
55728;SDS011;41633;39.720;2.910;2022-10-31T09:02:15;19.77;;;7.15;;
55728;SDS011;41633;39.720;2.910;2022-10-31T09:04:42;17.80;;;6.53;;
55728;SDS011;41633;39.720;2.910;2022-10-31T09:07:08;16.52;;;6.65;;
55728;SDS011;41633;39.720;2.910;2022-10-31T09:09:34;16.60;;;6.00;;
55728;SDS011;41633;39.720;2.910;2022-10-31T09:12:00;23.35;;;7.13;;
55728;SDS011;41633;39.720;2.910;2022-10-31T09:14:27;18.27;;;6.22;;
55728;SDS011;41633;39.720;2.910;2022-10-31T09:16:53;15.70;;;6.57;;
55728;SDS011;41633;39.720;2.910;2022-10-31T09:19:20;15.88;;;6.35;;
55728;SDS011;41633;39.720;2.910;2022-10-31T09:21:46;18.55;;;6.13;;
55728;SDS011;41633;39.720;2.910;2022-10-31T09:24:12;15.30;;;6.50;;
55728;SDS011;41633;39.720;2.910;2022-10-31T09:26:38;19.60;;;7.05;;
55728;SDS011;41633;39.720;2.910;2022-10-31T09:29:04;22.48;;;6.60;;
55728;SDS011;41633;39.720;2.910;2022-10-31T09:31:31;19.58;;;6.57;;
55728;SDS011;41633;39.720;2.910;2022-10-31T09:33:57;18.38;;;6.80;;
55728;SDS011;41633;39.720;2.910;2022-10-31T09:36:23;17.25;;;6.10;;
55728;SDS011;41633;39.720;2.910;2022-10-31T09:38:50;17.75;;;6.40;;
55728;SDS011;41633;39.720;2.910;2022-10-31T09:46:34;19.98;;;7.78;;
55728;SDS011;41633;39.720;2.910;2022-10-31T09:51:43;19.20;;;6.25;;
55728;SDS011;41633;39.720;2.910;2022-10-31T09:56:37;16.08;;;5.57;;
55728;SDS011;41633;39.720;2.910;2022-10-31T09:59:04;16.40;;;5.35;;
55728;SDS011;41633;39.720;2.910;2022-10-31T10:06:35;15.10;;;6.13;;
55728;SDS011;41633;39.720;2.910;2022-10-31T10:09:06;20.10;;;6.07;;
55728;SDS011;41633;39.720;2.910;2022-10-31T10:11:38;17.73;;;5.40;;
55728;SDS011;41633;39.720;2.910;2022-10-31T10:20:01;20.20;;;6.13;;
55728;SDS011;41633;39.720;2.910;2022-10-31T10:25:22;15.18;;;5.38;;
55728;SDS011;41633;39.720;2.910;2022-10-31T10:30:35;18.75;;;6.10;;
55728;SDS011;41633;39.720;2.910;2022-10-31T10:33:10;16.52;;;6.22;;
55728;SDS011;41633;39.720;2.910;2022-10-31T10:38:17;18.20;;;5.47;;
55728;SDS011;41633;39.720;2.910;2022-10-31T10:40:46;18.30;;;5.93;;
55728;SDS011;41633;39.720;2.910;2022-10-31T10:43:20;17.00;;;5.95;;
55728;SDS011;41633;39.720;2.910;2022-10-31T10:48:44;17.27;;;5.78;;
55728;SDS011;41633;39.720;2.910;2022-10-31T10:51:20;20.08;;;5.85;;
55728;SDS011;41633;39.720;2.910;2022-10-31T10:53:53;17.73;;;5.63;;
55728;SDS011;41633;39.720;2.910;2022-10-31T10:56:36;16.70;;;5.47;;
55728;SDS011;41633;39.720;2.910;2022-10-31T10:59:02;17.80;;;6.32;;
55728;SDS011;41633;39.720;2.910;2022-10-31T11:01:29;14.20;;;6.05;;
55728;SDS011;41633;39.720;2.910;2022-10-31T11:03:55;16.23;;;5.22;;
55728;SDS011;41633;39.720;2.910;2022-10-31T11:06:22;15.82;;;5.90;;
55728;SDS011;41633;39.720;2.910;2022-10-31T11:08:51;19.33;;;6.20;;
55728;SDS011;41633;39.720;2.910;2022-10-31T11:13:44;14.68;;;5.22;;
55728;SDS011;41633;39.720;2.910;2022-10-31T11:16:13;16.27;;;6.00;;
55728;SDS011;41633;39.720;2.910;2022-10-31T11:18:42;16.27;;;5.65;;
55728;SDS011;41633;39.720;2.910;2022-10-31T11:21:19;17.38;;;5.80;;
55728;SDS011;41633;39.720;2.910;2022-10-31T11:23:46;17.75;;;6.07;;
55728;SDS011;41633;39.720;2.910;2022-10-31T11:26:18;16.52;;;5.53;;
55728;SDS011;41633;39.720;2.910;2022-10-31T11:28:55;14.52;;;5.20;;
55728;SDS011;41633;39.720;2.910;2022-10-31T11:31:22;15.13;;;5.43;;
55728;SDS011;41633;39.720;2.910;2022-10-31T11:33:49;13.63;;;5.18;;
55728;SDS011;41633;39.720;2.910;2022-10-31T11:38:43;21.73;;;5.15;;
55728;SDS011;41633;39.720;2.910;2022-10-31T11:41:11;15.10;;;5.72;;
55728;SDS011;41633;39.720;2.910;2022-10-31T11:43:38;14.57;;;5.30;;
55728;SDS011;41633;39.720;2.910;2022-10-31T11:46:11;14.38;;;4.93;;
55728;SDS011;41633;39.720;2.910;2022-10-31T11:48:45;15.80;;;4.82;;
55728;SDS011;41633;39.720;2.910;2022-10-31T11:51:12;16.35;;;5.53;;
55728;SDS011;41633;39.720;2.910;2022-10-31T11:53:38;15.10;;;5.75;;
55728;SDS011;41633;39.720;2.910;2022-10-31T11:56:14;15.45;;;5.45;;
55728;SDS011;41633;39.720;2.910;2022-10-31T11:58:41;17.52;;;5.60;;
55728;SDS011;41633;39.720;2.910;2022-10-31T12:01:20;18.65;;;5.70;;
55728;SDS011;41633;39.720;2.910;2022-10-31T12:03:54;16.70;;;5.95;;
55728;SDS011;41633;39.720;2.910;2022-10-31T12:06:25;19.05;;;5.65;;
55728;SDS011;41633;39.720;2.910;2022-10-31T12:08:54;16.95;;;5.55;;
55728;SDS011;41633;39.720;2.910;2022-10-31T12:14:10;15.35;;;5.40;;
55728;SDS011;41633;39.720;2.910;2022-10-31T12:31:44;16.48;;;5.65;;
55728;SDS011;41633;39.720;2.910;2022-10-31T12:53:06;17.33;;;5.30;;
55728;SDS011;41633;39.720;2.910;2022-10-31T13:00:44;20.67;;;5.88;;
55728;SDS011;41633;39.720;2.910;2022-10-31T13:05:45;18.33;;;6.05;;
55728;SDS011;41633;39.720;2.910;2022-10-31T13:08:20;16.98;;;5.63;;
55728;SDS011;41633;39.720;2.910;2022-10-31T13:10:49;16.20;;;5.65;;
55728;SDS011;41633;39.720;2.910;2022-10-31T13:15:50;15.02;;;6.20;;
55728;SDS011;41633;39.720;2.910;2022-10-31T13:18:25;14.68;;;5.53;;
55728;SDS011;41633;39.720;2.910;2022-10-31T13:20:52;14.35;;;5.60;;
55728;SDS011;41633;39.720;2.910;2022-10-31T13:23:29;14.10;;;5.55;;
55728;SDS011;41633;39.720;2.910;2022-10-31T13:25:56;15.82;;;6.38;;
55728;SDS011;41633;39.720;2.910;2022-10-31T13:30:49;14.13;;;5.82;;
55728;SDS011;41633;39.720;2.910;2022-10-31T13:33:25;14.40;;;6.25;;
55728;SDS011;41633;39.720;2.910;2022-10-31T13:36:15;22.33;;;6.53;;
55728;SDS011;41633;39.720;2.910;2022-10-31T13:39:02;16.92;;;5.78;;
55728;SDS011;41633;39.720;2.910;2022-10-31T13:44:32;14.75;;;5.82;;
55728;SDS011;41633;39.720;2.910;2022-10-31T13:47:02;17.25;;;6.15;;
55728;SDS011;41633;39.720;2.910;2022-10-31T13:57:06;16.85;;;5.60;;
55728;SDS011;41633;39.720;2.910;2022-10-31T13:59:32;17.13;;;5.95;;
55728;SDS011;41633;39.720;2.910;2022-10-31T14:02:02;14.80;;;5.63;;
55728;SDS011;41633;39.720;2.910;2022-10-31T14:04:44;14.70;;;6.10;;
55728;SDS011;41633;39.720;2.910;2022-10-31T14:07:11;13.93;;;5.88;;
55728;SDS011;41633;39.720;2.910;2022-10-31T14:12:33;15.33;;;6.03;;
55728;SDS011;41633;39.720;2.910;2022-10-31T14:15:51;18.00;;;6.65;;
55728;SDS011;41633;39.720;2.910;2022-10-31T14:17:48;14.82;;;6.03;;
55728;SDS011;41633;39.720;2.910;2022-10-31T14:22:41;15.68;;;5.70;;
55728;SDS011;41633;39.720;2.910;2022-10-31T14:28:30;14.68;;;6.00;;
55728;SDS011;41633;39.720;2.910;2022-10-31T14:30:57;16.90;;;6.20;;
55728;SDS011;41633;39.720;2.910;2022-10-31T14:33:25;16.10;;;5.95;;
55728;SDS011;41633;39.720;2.910;2022-10-31T14:36:07;14.90;;;5.72;;
55728;SDS011;41633;39.720;2.910;2022-10-31T14:41:21;17.77;;;6.32;;
55728;SDS011;41633;39.720;2.910;2022-10-31T14:51:30;16.35;;;6.13;;
55728;SDS011;41633;39.720;2.910;2022-10-31T14:54:00;14.93;;;6.22;;
55728;SDS011;41633;39.720;2.910;2022-10-31T14:56:31;14.07;;;6.30;;
55728;SDS011;41633;39.720;2.910;2022-10-31T14:59:03;15.60;;;6.38;;
55728;SDS011;41633;39.720;2.910;2022-10-31T15:01:32;17.05;;;6.20;;
55728;SDS011;41633;39.720;2.910;2022-10-31T15:04:13;16.65;;;6.13;;
55728;SDS011;41633;39.720;2.910;2022-10-31T15:06:41;15.38;;;6.60;;
55728;SDS011;41633;39.720;2.910;2022-10-31T15:09:41;15.30;;;6.20;;
55728;SDS011;41633;39.720;2.910;2022-10-31T15:12:24;16.23;;;6.78;;
55728;SDS011;41633;39.720;2.910;2022-10-31T15:14:49;17.83;;;6.78;;
55728;SDS011;41633;39.720;2.910;2022-10-31T15:17:15;18.60;;;7.15;;
55728;SDS011;41633;39.720;2.910;2022-10-31T15:19:42;16.23;;;6.53;;
55728;SDS011;41633;39.720;2.910;2022-10-31T15:22:10;17.02;;;6.70;;
55728;SDS011;41633;39.720;2.910;2022-10-31T15:24:40;16.05;;;6.93;;
55728;SDS011;41633;39.720;2.910;2022-10-31T15:27:10;15.57;;;7.22;;
55728;SDS011;41633;39.720;2.910;2022-10-31T15:29:46;17.08;;;7.03;;
55728;SDS011;41633;39.720;2.910;2022-10-31T15:32:20;17.27;;;7.20;;
55728;SDS011;41633;39.720;2.910;2022-10-31T15:34:48;20.58;;;7.97;;
55728;SDS011;41633;39.720;2.910;2022-10-31T15:37:15;15.18;;;7.15;;
55728;SDS011;41633;39.720;2.910;2022-10-31T15:39:42;16.15;;;7.47;;
55728;SDS011;41633;39.720;2.910;2022-10-31T15:44:48;21.48;;;7.88;;
55728;SDS011;41633;39.720;2.910;2022-10-31T15:47:19;17.30;;;7.47;;
55728;SDS011;41633;39.720;2.910;2022-10-31T15:49:48;19.90;;;7.60;;
55728;SDS011;41633;39.720;2.910;2022-10-31T15:54:46;18.35;;;7.97;;
55728;SDS011;41633;39.720;2.910;2022-10-31T15:57:13;15.82;;;8.15;;
55728;SDS011;41633;39.720;2.910;2022-10-31T15:59:40;19.55;;;8.30;;
55728;SDS011;41633;39.720;2.910;2022-10-31T16:02:09;18.38;;;7.90;;
55728;SDS011;41633;39.720;2.910;2022-10-31T16:04:35;17.45;;;7.85;;
55728;SDS011;41633;39.720;2.910;2022-10-31T16:07:15;15.98;;;7.78;;
55728;SDS011;41633;39.720;2.910;2022-10-31T16:10:00;16.70;;;8.10;;
55728;SDS011;41633;39.720;2.910;2022-10-31T16:14:54;20.45;;;8.57;;
55728;SDS011;41633;39.720;2.910;2022-10-31T16:17:22;17.05;;;8.68;;
55728;SDS011;41633;39.720;2.910;2022-10-31T16:19:54;18.25;;;8.60;;
55728;SDS011;41633;39.720;2.910;2022-10-31T16:22:22;18.85;;;8.13;;
55728;SDS011;41633;39.720;2.910;2022-10-31T16:25:00;19.83;;;8.73;;
55728;SDS011;41633;39.720;2.910;2022-10-31T16:27:30;20.50;;;8.73;;
55728;SDS011;41633;39.720;2.910;2022-10-31T16:29:57;18.08;;;9.05;;
55728;SDS011;41633;39.720;2.910;2022-10-31T17:32:39;20.05;;;11.10;;
55728;SDS011;41633;39.720;2.910;2022-10-31T17:35:06;22.55;;;10.77;;
55728;SDS011;41633;39.720;2.910;2022-10-31T17:37:33;23.00;;;10.32;;
55728;SDS011;41633;39.720;2.910;2022-10-31T17:39:59;20.73;;;10.95;;
55728;SDS011;41633;39.720;2.910;2022-10-31T17:42:25;24.33;;;11.27;;
55728;SDS011;41633;39.720;2.910;2022-10-31T17:44:51;21.95;;;10.73;;
55728;SDS011;41633;39.720;2.910;2022-10-31T17:47:17;24.45;;;10.80;;
55728;SDS011;41633;39.720;2.910;2022-10-31T17:49:43;24.33;;;11.65;;
55728;SDS011;41633;39.720;2.910;2022-10-31T17:52:10;23.58;;;11.52;;
55728;SDS011;41633;39.720;2.910;2022-10-31T17:54:36;25.88;;;13.30;;
55728;SDS011;41633;39.720;2.910;2022-10-31T17:57:02;27.05;;;12.88;;
55728;SDS011;41633;39.720;2.910;2022-10-31T17:59:29;21.30;;;12.48;;
55728;SDS011;41633;39.720;2.910;2022-10-31T18:01:55;25.55;;;13.32;;
55728;SDS011;41633;39.720;2.910;2022-10-31T18:04:22;26.30;;;13.63;;
55728;SDS011;41633;39.720;2.910;2022-10-31T18:06:48;21.90;;;14.02;;
55728;SDS011;41633;39.720;2.910;2022-10-31T18:09:15;24.20;;;14.70;;
55728;SDS011;41633;39.720;2.910;2022-10-31T18:11:41;22.83;;;14.80;;
55728;SDS011;41633;39.720;2.910;2022-10-31T18:14:07;28.27;;;15.02;;
55728;SDS011;41633;39.720;2.910;2022-10-31T18:16:34;23.77;;;12.95;;
55728;SDS011;41633;39.720;2.910;2022-10-31T18:19:00;26.77;;;13.40;;
55728;SDS011;41633;39.720;2.910;2022-10-31T18:21:27;25.20;;;13.18;;
55728;SDS011;41633;39.720;2.910;2022-10-31T18:23:54;28.48;;;13.68;;
55728;SDS011;41633;39.720;2.910;2022-10-31T18:26:20;23.65;;;13.68;;
55728;SDS011;41633;39.720;2.910;2022-10-31T18:28:47;23.63;;;12.48;;
55728;SDS011;41633;39.720;2.910;2022-10-31T18:31:13;23.08;;;13.38;;
55728;SDS011;41633;39.720;2.910;2022-10-31T18:33:39;22.23;;;12.05;;
55728;SDS011;41633;39.720;2.910;2022-10-31T18:36:06;26.85;;;12.65;;
55728;SDS011;41633;39.720;2.910;2022-10-31T18:38:36;20.20;;;12.57;;
55728;SDS011;41633;39.720;2.910;2022-10-31T18:41:03;25.15;;;12.85;;
55728;SDS011;41633;39.720;2.910;2022-10-31T18:43:29;23.60;;;13.73;;
55728;SDS011;41633;39.720;2.910;2022-10-31T18:45:59;23.73;;;13.90;;
55728;SDS011;41633;39.720;2.910;2022-10-31T18:48:26;26.02;;;15.32;;
55728;SDS011;41633;39.720;2.910;2022-10-31T18:50:56;28.98;;;14.73;;
55728;SDS011;41633;39.720;2.910;2022-10-31T18:53:22;25.27;;;13.63;;
55728;SDS011;41633;39.720;2.910;2022-10-31T18:55:48;23.00;;;13.20;;
55728;SDS011;41633;39.720;2.910;2022-10-31T18:58:15;24.73;;;13.50;;
55728;SDS011;41633;39.720;2.910;2022-10-31T19:00:41;24.98;;;14.18;;
55728;SDS011;41633;39.720;2.910;2022-10-31T19:03:08;21.27;;;13.70;;
55728;SDS011;41633;39.720;2.910;2022-10-31T19:05:35;20.25;;;13.93;;
55728;SDS011;41633;39.720;2.910;2022-10-31T19:08:03;30.88;;;15.88;;
55728;SDS011;41633;39.720;2.910;2022-10-31T19:10:38;27.85;;;16.45;;
55728;SDS011;41633;39.720;2.910;2022-10-31T19:13:05;27.17;;;15.77;;
55728;SDS011;41633;39.720;2.910;2022-10-31T19:15:32;23.98;;;16.92;;
55728;SDS011;41633;39.720;2.910;2022-10-31T19:17:58;29.10;;;19.15;;
55728;SDS011;41633;39.720;2.910;2022-10-31T19:22:50;26.95;;;16.48;;
55728;SDS011;41633;39.720;2.910;2022-10-31T19:25:17;26.85;;;15.18;;
55728;SDS011;41633;39.720;2.910;2022-10-31T19:27:43;27.48;;;14.13;;
55728;SDS011;41633;39.720;2.910;2022-10-31T19:30:10;23.25;;;15.82;;
55728;SDS011;41633;39.720;2.910;2022-10-31T19:32:36;24.42;;;15.50;;
55728;SDS011;41633;39.720;2.910;2022-10-31T19:35:03;26.35;;;14.70;;
55728;SDS011;41633;39.720;2.910;2022-10-31T19:37:36;24.33;;;14.48;;
55728;SDS011;41633;39.720;2.910;2022-10-31T19:40:04;26.48;;;16.73;;
55728;SDS011;41633;39.720;2.910;2022-10-31T19:42:30;27.92;;;15.90;;
55728;SDS011;41633;39.720;2.910;2022-10-31T19:44:57;26.63;;;15.32;;
55728;SDS011;41633;39.720;2.910;2022-10-31T19:47:23;25.73;;;17.13;;
55728;SDS011;41633;39.720;2.910;2022-10-31T19:52:15;19.85;;;13.13;;
55728;SDS011;41633;39.720;2.910;2022-10-31T19:54:42;22.52;;;12.57;;
55728;SDS011;41633;39.720;2.910;2022-10-31T19:57:08;24.10;;;13.25;;
55728;SDS011;41633;39.720;2.910;2022-10-31T20:02:00;20.73;;;13.20;;
55728;SDS011;41633;39.720;2.910;2022-10-31T20:04:27;17.70;;;12.20;;
55728;SDS011;41633;39.720;2.910;2022-10-31T20:06:53;26.13;;;12.95;;
55728;SDS011;41633;39.720;2.910;2022-10-31T20:09:19;20.20;;;11.85;;
55728;SDS011;41633;39.720;2.910;2022-10-31T20:11:48;19.58;;;11.98;;